sensor_id;sensor_type;location;lat;lon;timestamp;pressure;altitude;pressure_sealevel;temperature;humidity
70437;BME280;57877;39.750;-104.894;2023-01-09T00:00:44;83667.88;;;6.86;26.06
70437;BME280;57877;39.750;-104.894;2023-01-09T00:03:09;83658.89;;;6.29;26.65
70437;BME280;57877;39.750;-104.894;2023-01-09T00:05:34;83660.97;;;6.41;26.73
70437;BME280;57877;39.750;-104.894;2023-01-09T00:08:00;83670.49;;;6.53;27.34
70437;BME280;57877;39.750;-104.894;2023-01-09T00:10:25;83675.63;;;6.33;27.83
70437;BME280;57877;39.750;-104.894;2023-01-09T00:12:50;83676.10;;;6.48;28.06
70437;BME280;57877;39.750;-104.894;2023-01-09T00:15:16;83675.21;;;6.17;27.70
70437;BME280;57877;39.750;-104.894;2023-01-09T00:17:41;83670.32;;;5.81;27.81
70437;BME280;57877;39.750;-104.894;2023-01-09T00:20:09;83673.12;;;5.85;27.86
70437;BME280;57877;39.750;-104.894;2023-01-09T00:22:33;83685.16;;;5.48;28.97
70437;BME280;57877;39.750;-104.894;2023-01-09T00:24:58;83686.95;;;5.81;28.87
70437;BME280;57877;39.750;-104.894;2023-01-09T00:27:23;83685.38;;;5.97;28.25
70437;BME280;57877;39.750;-104.894;2023-01-09T00:29:48;83690.84;;;5.58;30.14
70437;BME280;57877;39.750;-104.894;2023-01-09T00:32:13;83693.58;;;5.63;29.46
70437;BME280;57877;39.750;-104.894;2023-01-09T00:34:38;83698.32;;;5.13;30.13
70437;BME280;57877;39.750;-104.894;2023-01-09T00:37:03;83690.66;;;5.28;28.86
70437;BME280;57877;39.750;-104.894;2023-01-09T00:39:28;83693.99;;;5.35;29.04
70437;BME280;57877;39.750;-104.894;2023-01-09T00:41:54;83697.95;;;4.98;29.73
70437;BME280;57877;39.750;-104.894;2023-01-09T00:44:20;83702.63;;;5.25;29.51
70437;BME280;57877;39.750;-104.894;2023-01-09T00:46:47;83705.80;;;4.82;29.59
70437;BME280;57877;39.750;-104.894;2023-01-09T00:49:09;83711.07;;;4.97;29.66
70437;BME280;57877;39.750;-104.894;2023-01-09T00:51:33;83711.50;;;4.72;30.01
70437;BME280;57877;39.750;-104.894;2023-01-09T00:53:58;83713.86;;;4.79;30.85
70437;BME280;57877;39.750;-104.894;2023-01-09T00:56:23;83712.15;;;4.71;31.84
70437;BME280;57877;39.750;-104.894;2023-01-09T00:58:48;83709.69;;;4.42;31.61
70437;BME280;57877;39.750;-104.894;2023-01-09T01:01:13;83712.81;;;4.42;32.06
70437;BME280;57877;39.750;-104.894;2023-01-09T01:03:39;83722.15;;;4.83;32.33
70437;BME280;57877;39.750;-104.894;2023-01-09T01:06:03;83727.15;;;4.54;31.64
70437;BME280;57877;39.750;-104.894;2023-01-09T01:08:28;83727.83;;;4.18;30.84
70437;BME280;57877;39.750;-104.894;2023-01-09T01:10:53;83726.91;;;3.70;31.87
70437;BME280;57877;39.750;-104.894;2023-01-09T01:13:19;83720.71;;;4.05;32.74
70437;BME280;57877;39.750;-104.894;2023-01-09T01:15:45;83721.82;;;3.53;33.26
70437;BME280;57877;39.750;-104.894;2023-01-09T01:18:09;83708.39;;;3.55;30.83
70437;BME280;57877;39.750;-104.894;2023-01-09T01:20:34;83708.47;;;3.51;31.44
70437;BME280;57877;39.750;-104.894;2023-01-09T01:22:59;83703.62;;;3.70;31.32
70437;BME280;57877;39.750;-104.894;2023-01-09T01:25:24;83700.00;;;3.86;31.15
70437;BME280;57877;39.750;-104.894;2023-01-09T01:27:50;83699.92;;;3.56;28.31
70437;BME280;57877;39.750;-104.894;2023-01-09T01:30:16;83702.44;;;3.57;28.75
70437;BME280;57877;39.750;-104.894;2023-01-09T01:32:39;83695.59;;;3.99;25.59
70437;BME280;57877;39.750;-104.894;2023-01-09T01:35:05;83695.12;;;4.38;27.05
70437;BME280;57877;39.750;-104.894;2023-01-09T01:37:29;83692.71;;;4.32;25.23
70437;BME280;57877;39.750;-104.894;2023-01-09T01:39:55;83692.12;;;4.56;22.65
70437;BME280;57877;39.750;-104.894;2023-01-09T01:42:19;83698.93;;;4.99;21.34
70437;BME280;57877;39.750;-104.894;2023-01-09T01:47:10;83698.55;;;4.68;21.06
70437;BME280;57877;39.750;-104.894;2023-01-09T01:49:36;83706.11;;;4.91;20.71
70437;BME280;57877;39.750;-104.894;2023-01-09T01:52:01;83706.55;;;5.97;19.84
70437;BME280;57877;39.750;-104.894;2023-01-09T01:54:29;83705.21;;;6.54;19.19
70437;BME280;57877;39.750;-104.894;2023-01-09T01:56:55;83703.02;;;6.28;18.85
70437;BME280;57877;39.750;-104.894;2023-01-09T01:59:22;83704.69;;;6.78;23.92
70437;BME280;57877;39.750;-104.894;2023-01-09T02:01:47;83704.73;;;7.03;19.68
70437;BME280;57877;39.750;-104.894;2023-01-09T02:04:08;83706.14;;;7.01;18.21
70437;BME280;57877;39.750;-104.894;2023-01-09T02:06:33;83707.12;;;7.00;18.10
70437;BME280;57877;39.750;-104.894;2023-01-09T02:08:58;83712.18;;;7.00;21.50
70437;BME280;57877;39.750;-104.894;2023-01-09T02:11:23;83710.73;;;7.00;19.98
70437;BME280;57877;39.750;-104.894;2023-01-09T02:13:48;83708.05;;;6.49;20.00
70437;BME280;57877;39.750;-104.894;2023-01-09T02:16:24;83707.52;;;6.84;18.84
70437;BME280;57877;39.750;-104.894;2023-01-09T02:18:45;83707.47;;;7.11;19.78
70437;BME280;57877;39.750;-104.894;2023-01-09T02:21:08;83714.38;;;6.55;20.12
70437;BME280;57877;39.750;-104.894;2023-01-09T02:26:20;83721.04;;;6.36;20.19
70437;BME280;57877;39.750;-104.894;2023-01-09T02:28:34;83723.95;;;6.14;20.48
70437;BME280;57877;39.750;-104.894;2023-01-09T02:30:45;83721.37;;;6.44;20.05
70437;BME280;57877;39.750;-104.894;2023-01-09T02:33:20;83713.22;;;6.03;20.66
70437;BME280;57877;39.750;-104.894;2023-01-09T02:38:04;83702.35;;;6.06;20.77
70437;BME280;57877;39.750;-104.894;2023-01-09T02:40:28;83700.68;;;5.82;20.09
70437;BME280;57877;39.750;-104.894;2023-01-09T02:42:50;83697.08;;;5.99;19.93
70437;BME280;57877;39.750;-104.894;2023-01-09T02:45:15;83702.86;;;6.21;19.68
70437;BME280;57877;39.750;-104.894;2023-01-09T02:47:42;83702.59;;;6.29;19.48
70437;BME280;57877;39.750;-104.894;2023-01-09T02:50:09;83702.82;;;6.36;19.66
70437;BME280;57877;39.750;-104.894;2023-01-09T02:52:36;83701.46;;;6.31;20.23
70437;BME280;57877;39.750;-104.894;2023-01-09T02:55:01;83692.57;;;6.06;20.82
70437;BME280;57877;39.750;-104.894;2023-01-09T02:57:29;83691.50;;;5.30;22.14
70437;BME280;57877;39.750;-104.894;2023-01-09T02:59:56;83682.73;;;4.69;22.37
70437;BME280;57877;39.750;-104.894;2023-01-09T03:02:22;83684.97;;;4.98;22.44
70437;BME280;57877;39.750;-104.894;2023-01-09T03:04:43;83685.09;;;5.00;22.25
70437;BME280;57877;39.750;-104.894;2023-01-09T03:07:03;83685.76;;;5.28;22.34
70437;BME280;57877;39.750;-104.894;2023-01-09T03:09:27;83692.96;;;4.86;22.46
70437;BME280;57877;39.750;-104.894;2023-01-09T03:11:54;83690.19;;;4.83;22.31
70437;BME280;57877;39.750;-104.894;2023-01-09T03:14:18;83685.74;;;4.68;22.91
70437;BME280;57877;39.750;-104.894;2023-01-09T03:16:43;83679.90;;;4.73;23.43
70437;BME280;57877;39.750;-104.894;2023-01-09T03:19:08;83684.80;;;4.50;23.64
70437;BME280;57877;39.750;-104.894;2023-01-09T03:21:30;83682.27;;;4.21;23.89
70437;BME280;57877;39.750;-104.894;2023-01-09T03:23:58;83683.65;;;4.25;23.95
70437;BME280;57877;39.750;-104.894;2023-01-09T03:26:20;83691.49;;;4.65;24.06
70437;BME280;57877;39.750;-104.894;2023-01-09T03:28:46;83695.11;;;4.62;24.24
70437;BME280;57877;39.750;-104.894;2023-01-09T03:31:10;83700.74;;;4.07;24.99
70437;BME280;57877;39.750;-104.894;2023-01-09T03:33:35;83697.53;;;3.98;25.54
70437;BME280;57877;39.750;-104.894;2023-01-09T03:36:00;83693.22;;;3.86;25.84
70437;BME280;57877;39.750;-104.894;2023-01-09T03:38:25;83686.21;;;3.85;25.59
70437;BME280;57877;39.750;-104.894;2023-01-09T03:40:52;83677.84;;;4.02;25.69
70437;BME280;57877;39.750;-104.894;2023-01-09T03:43:16;83688.31;;;4.06;25.48
70437;BME280;57877;39.750;-104.894;2023-01-09T03:45:42;83691.78;;;4.31;25.42
70437;BME280;57877;39.750;-104.894;2023-01-09T03:48:06;83691.86;;;4.16;25.22
70437;BME280;57877;39.750;-104.894;2023-01-09T03:50:31;83689.83;;;3.88;25.57
70437;BME280;57877;39.750;-104.894;2023-01-09T03:52:56;83684.24;;;3.74;26.05
70437;BME280;57877;39.750;-104.894;2023-01-09T03:55:21;83686.84;;;4.11;25.85
70437;BME280;57877;39.750;-104.894;2023-01-09T03:57:47;83685.02;;;4.07;25.67
70437;BME280;57877;39.750;-104.894;2023-01-09T04:00:13;83683.51;;;3.33;25.91
70437;BME280;57877;39.750;-104.894;2023-01-09T04:02:37;83675.69;;;4.32;25.83
70437;BME280;57877;39.750;-104.894;2023-01-09T04:05:02;83683.06;;;3.19;26.94
70437;BME280;57877;39.750;-104.894;2023-01-09T04:07:27;83685.05;;;3.27;27.13
70437;BME280;57877;39.750;-104.894;2023-01-09T04:09:52;83681.33;;;3.07;27.39
70437;BME280;57877;39.750;-104.894;2023-01-09T04:12:17;83677.05;;;3.19;27.37
70437;BME280;57877;39.750;-104.894;2023-01-09T04:14:42;83675.44;;;3.03;26.95
70437;BME280;57877;39.750;-104.894;2023-01-09T04:17:07;83676.53;;;2.92;26.76
70437;BME280;57877;39.750;-104.894;2023-01-09T04:19:32;83678.32;;;3.18;26.36
70437;BME280;57877;39.750;-104.894;2023-01-09T04:21:57;83679.23;;;3.30;26.40
70437;BME280;57877;39.750;-104.894;2023-01-09T04:24:22;83676.63;;;3.41;26.02
70437;BME280;57877;39.750;-104.894;2023-01-09T04:26:47;83675.29;;;4.03;25.88
70437;BME280;57877;39.750;-104.894;2023-01-09T04:29:12;83674.60;;;3.79;25.89
70437;BME280;57877;39.750;-104.894;2023-01-09T04:31:37;83669.87;;;3.64;26.16
70437;BME280;57877;39.750;-104.894;2023-01-09T04:34:03;83656.55;;;3.27;26.55
70437;BME280;57877;39.750;-104.894;2023-01-09T04:36:28;83656.09;;;2.88;26.23
70437;BME280;57877;39.750;-104.894;2023-01-09T04:38:53;83652.05;;;2.94;26.41
70437;BME280;57877;39.750;-104.894;2023-01-09T04:41:18;83653.53;;;2.87;26.28
70437;BME280;57877;39.750;-104.894;2023-01-09T04:43:43;83657.13;;;2.67;26.62
70437;BME280;57877;39.750;-104.894;2023-01-09T04:46:08;83650.12;;;2.76;26.52
70437;BME280;57877;39.750;-104.894;2023-01-09T04:48:33;83647.47;;;2.51;26.37
70437;BME280;57877;39.750;-104.894;2023-01-09T04:50:59;83651.93;;;2.80;26.60
70437;BME280;57877;39.750;-104.894;2023-01-09T04:53:24;83659.11;;;2.79;26.25
70437;BME280;57877;39.750;-104.894;2023-01-09T04:55:49;83660.23;;;2.56;26.68
70437;BME280;57877;39.750;-104.894;2023-01-09T04:58:14;83657.29;;;2.75;27.09
70437;BME280;57877;39.750;-104.894;2023-01-09T05:00:39;83655.87;;;2.66;26.98
70437;BME280;57877;39.750;-104.894;2023-01-09T05:03:04;83657.90;;;2.63;27.16
70437;BME280;57877;39.750;-104.894;2023-01-09T05:05:29;83658.86;;;2.36;27.41
70437;BME280;57877;39.750;-104.894;2023-01-09T05:07:54;83665.20;;;2.29;27.43
70437;BME280;57877;39.750;-104.894;2023-01-09T05:10:19;83673.47;;;2.53;27.53
70437;BME280;57877;39.750;-104.894;2023-01-09T05:12:44;83670.63;;;2.52;27.00
70437;BME280;57877;39.750;-104.894;2023-01-09T05:15:11;83670.63;;;2.53;26.71
70437;BME280;57877;39.750;-104.894;2023-01-09T05:17:36;83672.84;;;2.38;26.47
70437;BME280;57877;39.750;-104.894;2023-01-09T05:20:02;83670.65;;;2.47;26.29
70437;BME280;57877;39.750;-104.894;2023-01-09T05:22:28;83671.55;;;2.69;25.59
70437;BME280;57877;39.750;-104.894;2023-01-09T05:24:53;83668.75;;;2.40;25.98
70437;BME280;57877;39.750;-104.894;2023-01-09T05:27:18;83671.28;;;2.74;25.22
70437;BME280;57877;39.750;-104.894;2023-01-09T05:29:44;83671.85;;;2.89;24.21
70437;BME280;57877;39.750;-104.894;2023-01-09T05:32:09;83671.31;;;3.80;23.24
70437;BME280;57877;39.750;-104.894;2023-01-09T05:34:34;83677.88;;;4.07;23.44
70437;BME280;57877;39.750;-104.894;2023-01-09T05:37:00;83675.72;;;4.19;22.78
70437;BME280;57877;39.750;-104.894;2023-01-09T05:39:25;83676.45;;;4.20;22.94
70437;BME280;57877;39.750;-104.894;2023-01-09T05:41:49;83676.70;;;4.12;22.75
70437;BME280;57877;39.750;-104.894;2023-01-09T05:44:15;83681.41;;;3.74;23.02
70437;BME280;57877;39.750;-104.894;2023-01-09T05:46:40;83682.85;;;3.57;23.77
70437;BME280;57877;39.750;-104.894;2023-01-09T05:49:05;83686.68;;;3.82;24.46
70437;BME280;57877;39.750;-104.894;2023-01-09T05:51:30;83686.51;;;3.50;24.72
70437;BME280;57877;39.750;-104.894;2023-01-09T05:53:56;83685.96;;;3.43;24.79
70437;BME280;57877;39.750;-104.894;2023-01-09T05:56:22;83685.87;;;3.44;25.12
70437;BME280;57877;39.750;-104.894;2023-01-09T05:58:47;83682.28;;;2.85;25.46
70437;BME280;57877;39.750;-104.894;2023-01-09T06:01:12;83679.89;;;2.69;25.97
70437;BME280;57877;39.750;-104.894;2023-01-09T06:03:37;83679.04;;;2.38;26.17
70437;BME280;57877;39.750;-104.894;2023-01-09T06:06:02;83673.77;;;2.65;26.83
70437;BME280;57877;39.750;-104.894;2023-01-09T06:08:27;83671.17;;;2.36;27.42
70437;BME280;57877;39.750;-104.894;2023-01-09T06:10:52;83670.34;;;1.98;27.89
70437;BME280;57877;39.750;-104.894;2023-01-09T06:13:17;83663.89;;;1.74;27.85
70437;BME280;57877;39.750;-104.894;2023-01-09T06:15:42;83665.04;;;2.06;27.24
70437;BME280;57877;39.750;-104.894;2023-01-09T06:18:07;83664.28;;;1.69;27.37
70437;BME280;57877;39.750;-104.894;2023-01-09T06:20:33;83665.60;;;1.85;27.31
70437;BME280;57877;39.750;-104.894;2023-01-09T06:22:57;83672.16;;;1.04;27.53
70437;BME280;57877;39.750;-104.894;2023-01-09T06:25:23;83667.40;;;1.55;27.46
70437;BME280;57877;39.750;-104.894;2023-01-09T06:27:48;83668.34;;;1.63;27.13
70437;BME280;57877;39.750;-104.894;2023-01-09T06:30:13;83674.16;;;2.29;26.33
70437;BME280;57877;39.750;-104.894;2023-01-09T06:32:37;83669.27;;;2.11;26.20
70437;BME280;57877;39.750;-104.894;2023-01-09T06:35:03;83666.72;;;2.25;26.12
70437;BME280;57877;39.750;-104.894;2023-01-09T06:37:27;83660.70;;;2.08;25.69
70437;BME280;57877;39.750;-104.894;2023-01-09T06:39:52;83661.65;;;2.27;25.60
70437;BME280;57877;39.750;-104.894;2023-01-09T06:42:18;83662.33;;;2.19;25.78
70437;BME280;57877;39.750;-104.894;2023-01-09T06:44:43;83664.54;;;2.01;26.35
70437;BME280;57877;39.750;-104.894;2023-01-09T06:47:08;83657.98;;;2.66;26.53
70437;BME280;57877;39.750;-104.894;2023-01-09T06:49:33;83655.68;;;2.10;26.46
70437;BME280;57877;39.750;-104.894;2023-01-09T06:51:58;83658.19;;;2.11;26.02
70437;BME280;57877;39.750;-104.894;2023-01-09T06:54:23;83658.48;;;1.87;25.94
70437;BME280;57877;39.750;-104.894;2023-01-09T06:56:48;83658.45;;;2.46;25.34
70437;BME280;57877;39.750;-104.894;2023-01-09T06:59:13;83657.53;;;3.09;24.10
70437;BME280;57877;39.750;-104.894;2023-01-09T07:01:38;83660.04;;;2.88;23.94
70437;BME280;57877;39.750;-104.894;2023-01-09T07:04:04;83656.88;;;3.40;23.95
70437;BME280;57877;39.750;-104.894;2023-01-09T07:06:28;83662.54;;;2.18;25.33
70437;BME280;57877;39.750;-104.894;2023-01-09T07:08:54;83666.23;;;2.77;25.46
70437;BME280;57877;39.750;-104.894;2023-01-09T07:11:19;83671.13;;;3.38;24.27
70437;BME280;57877;39.750;-104.894;2023-01-09T07:13:44;83662.70;;;2.89;24.42
70437;BME280;57877;39.750;-104.894;2023-01-09T07:16:09;83665.63;;;3.00;24.43
70437;BME280;57877;39.750;-104.894;2023-01-09T07:18:34;83663.49;;;3.31;23.89
70437;BME280;57877;39.750;-104.894;2023-01-09T07:20:59;83662.48;;;3.03;23.65
70437;BME280;57877;39.750;-104.894;2023-01-09T07:23:24;83667.62;;;3.09;24.05
70437;BME280;57877;39.750;-104.894;2023-01-09T07:25:50;83678.81;;;2.67;24.33
70437;BME280;57877;39.750;-104.894;2023-01-09T07:28:14;83661.16;;;3.34;24.11
70437;BME280;57877;39.750;-104.894;2023-01-09T07:30:40;83664.63;;;3.12;24.17
70437;BME280;57877;39.750;-104.894;2023-01-09T07:33:04;83671.60;;;2.63;24.37
70437;BME280;57877;39.750;-104.894;2023-01-09T07:35:29;83676.78;;;2.20;25.16
70437;BME280;57877;39.750;-104.894;2023-01-09T07:37:54;83664.57;;;2.49;24.83
70437;BME280;57877;39.750;-104.894;2023-01-09T07:40:19;83658.83;;;2.42;24.91
70437;BME280;57877;39.750;-104.894;2023-01-09T07:42:44;83655.65;;;2.02;25.20
70437;BME280;57877;39.750;-104.894;2023-01-09T07:45:10;83651.01;;;2.18;25.03
70437;BME280;57877;39.750;-104.894;2023-01-09T07:47:34;83645.55;;;1.90;25.29
70437;BME280;57877;39.750;-104.894;2023-01-09T07:49:59;83650.75;;;2.45;25.19
70437;BME280;57877;39.750;-104.894;2023-01-09T07:52:24;83646.27;;;2.82;25.20
70437;BME280;57877;39.750;-104.894;2023-01-09T07:54:49;83636.81;;;2.21;26.00
70437;BME280;57877;39.750;-104.894;2023-01-09T07:57:15;83639.94;;;2.44;25.13
70437;BME280;57877;39.750;-104.894;2023-01-09T07:59:40;83653.41;;;3.35;25.08
70437;BME280;57877;39.750;-104.894;2023-01-09T08:02:05;83663.33;;;3.40;23.66
70437;BME280;57877;39.750;-104.894;2023-01-09T08:04:30;83672.40;;;4.17;22.86
70437;BME280;57877;39.750;-104.894;2023-01-09T08:06:55;83684.14;;;3.90;23.66
70437;BME280;57877;39.750;-104.894;2023-01-09T08:09:20;83688.38;;;4.09;23.87
70437;BME280;57877;39.750;-104.894;2023-01-09T08:11:45;83689.79;;;3.58;24.04
70437;BME280;57877;39.750;-104.894;2023-01-09T08:14:10;83692.04;;;3.56;23.67
70437;BME280;57877;39.750;-104.894;2023-01-09T08:16:35;83691.41;;;3.66;23.30
70437;BME280;57877;39.750;-104.894;2023-01-09T08:19:01;83692.91;;;4.01;22.67
70437;BME280;57877;39.750;-104.894;2023-01-09T08:21:26;83688.04;;;4.01;22.68
70437;BME280;57877;39.750;-104.894;2023-01-09T08:23:51;83690.33;;;4.09;22.71
70437;BME280;57877;39.750;-104.894;2023-01-09T08:26:16;83697.42;;;3.63;23.10
70437;BME280;57877;39.750;-104.894;2023-01-09T08:28:41;83696.56;;;3.85;23.81
70437;BME280;57877;39.750;-104.894;2023-01-09T08:31:06;83688.02;;;4.06;23.89
70437;BME280;57877;39.750;-104.894;2023-01-09T08:33:31;83692.44;;;3.08;24.14
70437;BME280;57877;39.750;-104.894;2023-01-09T08:35:56;83701.29;;;2.99;25.34
70437;BME280;57877;39.750;-104.894;2023-01-09T08:38:22;83709.08;;;3.23;24.92
70437;BME280;57877;39.750;-104.894;2023-01-09T08:40:47;83720.79;;;4.09;24.48
70437;BME280;57877;39.750;-104.894;2023-01-09T08:43:11;83724.06;;;2.94;25.66
70437;BME280;57877;39.750;-104.894;2023-01-09T08:45:37;83730.95;;;3.03;26.13
70437;BME280;57877;39.750;-104.894;2023-01-09T08:48:02;83739.86;;;3.69;26.10
70437;BME280;57877;39.750;-104.894;2023-01-09T08:50:27;83748.45;;;3.78;25.88
70437;BME280;57877;39.750;-104.894;2023-01-09T08:52:52;83754.93;;;3.39;26.70
70437;BME280;57877;39.750;-104.894;2023-01-09T08:55:17;83754.22;;;3.35;26.26
70437;BME280;57877;39.750;-104.894;2023-01-09T08:57:46;83757.58;;;3.20;26.41
70437;BME280;57877;39.750;-104.894;2023-01-09T09:00:08;83763.87;;;3.36;26.64
70437;BME280;57877;39.750;-104.894;2023-01-09T09:02:32;83768.92;;;3.17;26.17
70437;BME280;57877;39.750;-104.894;2023-01-09T09:04:58;83770.81;;;2.36;26.87
70437;BME280;57877;39.750;-104.894;2023-01-09T09:07:22;83770.40;;;3.46;26.37
70437;BME280;57877;39.750;-104.894;2023-01-09T09:09:47;83781.71;;;3.15;26.82
70437;BME280;57877;39.750;-104.894;2023-01-09T09:12:12;83781.32;;;3.66;26.51
70437;BME280;57877;39.750;-104.894;2023-01-09T09:14:37;83792.70;;;2.77;27.51
70437;BME280;57877;39.750;-104.894;2023-01-09T09:17:02;83792.19;;;3.31;26.70
70437;BME280;57877;39.750;-104.894;2023-01-09T09:19:27;83788.60;;;3.42;27.18
70437;BME280;57877;39.750;-104.894;2023-01-09T09:21:52;83796.08;;;3.86;26.39
70437;BME280;57877;39.750;-104.894;2023-01-09T09:24:17;83803.18;;;2.99;27.17
70437;BME280;57877;39.750;-104.894;2023-01-09T09:26:43;83800.68;;;2.79;27.49
70437;BME280;57877;39.750;-104.894;2023-01-09T09:29:07;83797.63;;;2.80;27.28
70437;BME280;57877;39.750;-104.894;2023-01-09T09:31:32;83801.58;;;2.26;27.90
70437;BME280;57877;39.750;-104.894;2023-01-09T09:33:57;83801.05;;;2.57;27.94
70437;BME280;57877;39.750;-104.894;2023-01-09T09:36:22;83806.26;;;3.25;26.98
70437;BME280;57877;39.750;-104.894;2023-01-09T09:38:48;83798.71;;;3.75;26.55
70437;BME280;57877;39.750;-104.894;2023-01-09T09:41:24;83796.11;;;3.56;26.51
70437;BME280;57877;39.750;-104.894;2023-01-09T09:43:52;83802.49;;;3.71;26.26
70437;BME280;57877;39.750;-104.894;2023-01-09T09:46:08;83804.27;;;4.17;25.01
70437;BME280;57877;39.750;-104.894;2023-01-09T09:48:34;83802.39;;;3.96;25.15
70437;BME280;57877;39.750;-104.894;2023-01-09T09:53:23;83803.95;;;4.22;24.81
70437;BME280;57877;39.750;-104.894;2023-01-09T09:55:45;83804.84;;;4.24;24.79
70437;BME280;57877;39.750;-104.894;2023-01-09T09:58:17;83809.39;;;4.81;23.97
70437;BME280;57877;39.750;-104.894;2023-01-09T10:00:33;83812.81;;;4.93;24.35
70437;BME280;57877;39.750;-104.894;2023-01-09T10:03:02;83818.22;;;4.85;24.25
70437;BME280;57877;39.750;-104.894;2023-01-09T10:05:25;83815.58;;;4.58;23.93
70437;BME280;57877;39.750;-104.894;2023-01-09T10:07:49;83810.38;;;4.74;23.80
70437;BME280;57877;39.750;-104.894;2023-01-09T10:10:18;83798.03;;;4.35;23.62
70437;BME280;57877;39.750;-104.894;2023-01-09T10:12:44;83792.92;;;4.03;23.77
70437;BME280;57877;39.750;-104.894;2023-01-09T10:15:14;83784.81;;;3.88;24.34
70437;BME280;57877;39.750;-104.894;2023-01-09T10:17:40;83780.15;;;3.70;24.60
70437;BME280;57877;39.750;-104.894;2023-01-09T10:20:05;83770.77;;;3.77;24.53
70437;BME280;57877;39.750;-104.894;2023-01-09T10:22:26;83766.09;;;3.75;23.79
70437;BME280;57877;39.750;-104.894;2023-01-09T10:24:55;83767.63;;;4.13;23.75
70437;BME280;57877;39.750;-104.894;2023-01-09T10:27:16;83767.54;;;4.17;23.33
70437;BME280;57877;39.750;-104.894;2023-01-09T10:29:42;83771.34;;;4.47;22.78
70437;BME280;57877;39.750;-104.894;2023-01-09T10:32:10;83776.62;;;4.66;22.71
70437;BME280;57877;39.750;-104.894;2023-01-09T10:34:34;83786.96;;;4.42;22.64
70437;BME280;57877;39.750;-104.894;2023-01-09T10:36:59;83792.67;;;5.02;23.00
70437;BME280;57877;39.750;-104.894;2023-01-09T10:39:18;83802.05;;;4.73;23.03
70437;BME280;57877;39.750;-104.894;2023-01-09T10:41:48;83804.34;;;4.44;23.62
70437;BME280;57877;39.750;-104.894;2023-01-09T10:44:11;83800.91;;;4.74;23.68
70437;BME280;57877;39.750;-104.894;2023-01-09T10:46:33;83799.67;;;4.25;24.17
70437;BME280;57877;39.750;-104.894;2023-01-09T10:48:59;83797.48;;;3.68;24.86
70437;BME280;57877;39.750;-104.894;2023-01-09T10:51:23;83796.94;;;3.78;24.66
70437;BME280;57877;39.750;-104.894;2023-01-09T10:53:49;83796.95;;;3.39;26.06
70437;BME280;57877;39.750;-104.894;2023-01-09T10:56:15;83794.08;;;3.44;25.59
70437;BME280;57877;39.750;-104.894;2023-01-09T10:58:36;83797.57;;;3.37;26.09
70437;BME280;57877;39.750;-104.894;2023-01-09T11:01:01;83811.70;;;3.22;28.46
70437;BME280;57877;39.750;-104.894;2023-01-09T11:03:27;83823.77;;;3.31;26.32
70437;BME280;57877;39.750;-104.894;2023-01-09T11:05:52;83829.87;;;3.11;28.39
70437;BME280;57877;39.750;-104.894;2023-01-09T11:08:22;83824.41;;;3.33;26.71
70437;BME280;57877;39.750;-104.894;2023-01-09T11:10:47;83818.93;;;2.77;26.66
70437;BME280;57877;39.750;-104.894;2023-01-09T11:13:13;83811.50;;;2.57;26.73
70437;BME280;57877;39.750;-104.894;2023-01-09T11:15:31;83799.68;;;2.75;26.37
70437;BME280;57877;39.750;-104.894;2023-01-09T11:20:25;83781.97;;;2.81;26.13
70437;BME280;57877;39.750;-104.894;2023-01-09T11:22:49;83788.31;;;2.69;26.45
70437;BME280;57877;39.750;-104.894;2023-01-09T11:25:14;83786.10;;;2.62;26.64
70437;BME280;57877;39.750;-104.894;2023-01-09T11:27:37;83793.02;;;2.83;26.04
70437;BME280;57877;39.750;-104.894;2023-01-09T11:30:15;83796.65;;;2.95;26.59
70437;BME280;57877;39.750;-104.894;2023-01-09T11:32:28;83803.39;;;2.93;28.05
70437;BME280;57877;39.750;-104.894;2023-01-09T11:34:52;83804.83;;;2.76;28.35
70437;BME280;57877;39.750;-104.894;2023-01-09T11:37:23;83800.81;;;2.36;27.17
70437;BME280;57877;39.750;-104.894;2023-01-09T11:39:45;83806.99;;;1.92;28.25
70437;BME280;57877;39.750;-104.894;2023-01-09T11:42:17;83810.86;;;2.36;28.70
70437;BME280;57877;39.750;-104.894;2023-01-09T11:44:32;83809.98;;;2.24;28.87
70437;BME280;57877;39.750;-104.894;2023-01-09T11:46:58;83804.54;;;1.87;28.93
70437;BME280;57877;39.750;-104.894;2023-01-09T11:49:24;83801.09;;;1.45;28.81
70437;BME280;57877;39.750;-104.894;2023-01-09T11:54:17;83795.84;;;1.42;30.43
70437;BME280;57877;39.750;-104.894;2023-01-09T11:56:38;83797.05;;;1.32;30.02
70437;BME280;57877;39.750;-104.894;2023-01-09T11:59:09;83798.59;;;0.83;28.95
70437;BME280;57877;39.750;-104.894;2023-01-09T12:01:40;83802.43;;;1.27;29.18
70437;BME280;57877;39.750;-104.894;2023-01-09T12:04:08;83810.34;;;1.60;28.41
70437;BME280;57877;39.750;-104.894;2023-01-09T12:06:22;83807.16;;;1.43;28.16
70437;BME280;57877;39.750;-104.894;2023-01-09T12:08:51;83803.41;;;0.82;28.82
70437;BME280;57877;39.750;-104.894;2023-01-09T12:11:17;83804.09;;;1.18;28.48
70437;BME280;57877;39.750;-104.894;2023-01-09T12:13:45;83805.98;;;1.02;28.61
70437;BME280;57877;39.750;-104.894;2023-01-09T12:16:05;83810.88;;;1.14;28.80
70437;BME280;57877;39.750;-104.894;2023-01-09T12:18:37;83801.69;;;1.20;28.81
70437;BME280;57877;39.750;-104.894;2023-01-09T12:21:01;83797.05;;;0.97;28.77
70437;BME280;57877;39.750;-104.894;2023-01-09T12:23:25;83786.30;;;0.91;27.93
70437;BME280;57877;39.750;-104.894;2023-01-09T12:25:46;83781.43;;;1.48;28.62
70437;BME280;57877;39.750;-104.894;2023-01-09T12:28:19;83773.58;;;1.08;28.31
70437;BME280;57877;39.750;-104.894;2023-01-09T12:30:40;83780.58;;;1.18;28.50
70437;BME280;57877;39.750;-104.894;2023-01-09T12:33:06;83783.19;;;1.53;29.36
70437;BME280;57877;39.750;-104.894;2023-01-09T12:35:29;83789.76;;;1.34;29.68
70437;BME280;57877;39.750;-104.894;2023-01-09T12:40:22;83803.01;;;1.02;29.85
70437;BME280;57877;39.750;-104.894;2023-01-09T12:42:44;83810.55;;;0.89;30.72
70437;BME280;57877;39.750;-104.894;2023-01-09T12:45:03;83819.80;;;0.89;28.95